This is the latest recevied weather packets stored in our database for station/object W4FXD. If no packets are shown the sender has not sent any weather packets the latest 10 day(s).
| Time | Temp. | Humidity | Pressure | Rain* | Wind** | Luminosity | Snow |
|---|---|---|---|---|---|---|---|
| 1778049044 | 20° C | 63% | 1010.6 hPa | 0 mm | - | 0 W/m² | - |
| 1778048743 | 19.44° C | 66% | 1010.6 hPa | 0 mm | - | 0 W/m² | - |
| 1778048440 | 18.89° C | 65% | 1010.7 hPa | 0 mm | - | 0 W/m² | - |
| 1778048135 | 18.89° C | 66% | 1011 hPa | 0 mm | - | 0 W/m² | - |
| 1778047833 | 18.89° C | 66% | 1011.1 hPa | 0 mm | - | 0 W/m² | - |
| 1778047532 | 18.89° C | 66% | 1011.2 hPa | 0 mm | - | 0 W/m² | - |
| 1778047228 | 18.89° C | 67% | 1011.3 hPa | 0 mm | - | 0 W/m² | - |
| 1778046925 | 18.89° C | 66% | 1011.6 hPa | 0 mm | - | 0 W/m² | - |
| 1778046621 | 18.33° C | 66% | 1011.3 hPa | 0 mm | - | 0 W/m² | - |
| 1778046319 | 18.33° C | 68% | 1011.7 hPa | 0 mm | - | 0 W/m² | - |
| 1778046015 | 17.78° C | 70% | 1011.5 hPa | 0 mm | - | 0 W/m² | - |
| 1778045713 | 17.78° C | 71% | 1011.3 hPa | 0 mm | - | 0 W/m² | - |
| 1778045411 | 18.33° C | 71% | 1011.7 hPa | 0 mm | - | 0 W/m² | - |
| 1778045109 | 18.89° C | 70% | 1011.4 hPa | 1.27 mm | - | 0 W/m² | - |
| 1778044806 | 20° C | 63% | 1011.3 hPa | 1.27 mm | - | 0 W/m² | - |
| 1778044503 | 20.56° C | 56% | 1011.5 hPa | 0 mm | - | 0 W/m² | - |
| 1778044200 | 20° C | 56% | 1011.4 hPa | 0 mm | - | 0 W/m² | - |
| 1778043898 | 20° C | 57% | 1011.4 hPa | 0 mm | - | 0 W/m² | - |
| 1778043595 | 20° C | 57% | 1011.6 hPa | 0 mm | - | 0 W/m² | - |
| 1778043291 | 20° C | 56% | 1011.6 hPa | 0 mm | - | 0 W/m² | - |
| 1778042988 | 20° C | 57% | 1011.6 hPa | 0 mm | - | 0 W/m² | - |
| 1778042686 | 20° C | 58% | 1011.3 hPa | 0 mm | - | 0 W/m² | - |
| 1778042383 | 20° C | 57% | 1011.6 hPa | 0 mm | - | 0 W/m² | - |
| 1778042080 | 20° C | 57% | 1011.5 hPa | 0 mm | - | 0 W/m² | - |
| 1778041778 | 20° C | 57% | 1011.5 hPa | 0 mm | - | 0 W/m² | - |
* Rain latest hour (hover to see other rain measurements)
** Current wind speed in m/s (hover to see current wind gust speed)